Time;durP1;ratioP1;P1;durP2;ratioP2;P2;SDS_P1;SDS_P2;PMS_P1;PMS_P2;Temp;Humidity;BMP_temperature;BMP_pressure;BME280_temperature;BME280_humidity;BME280_pressure;Samples;Min_cycle;Max_cycle;Signal;HPM_P1;HPM_P2
2021/04/28 00:01:50;;;;;;;6.65;2.65;;;;;;;-143.98;100.00;68091.63;6312561;22;20031;-79
2021/04/28 00:04:17;;;;;;;7.38;2.15;;;;;;;-143.98;100.00;68091.63;6285772;22;20047;-79
2021/04/28 00:06:45;;;;;;;3.45;2.22;;;;;;;-143.98;100.00;68091.63;6258192;22;20034;-79
2021/04/28 00:09:12;;;;;;;8.05;2.55;;;;;;;-143.98;100.00;68091.63;6258473;22;20047;-79
2021/04/28 00:11:39;;;;;;;6.57;2.17;;;;;;;-143.98;100.00;68091.63;6308846;22;20066;-77
2021/04/28 00:14:06;;;;;;;9.70;3.05;;;;;;;-143.98;100.00;68091.63;6286491;22;20054;-77
2021/04/28 00:16:33;;;;;;;3.72;2.35;;;;;;;-143.98;100.00;68091.63;6259388;22;20023;-77
2021/04/28 00:19:00;;;;;;;14.23;2.88;;;;;;;-143.98;100.00;68091.63;6313306;22;20037;-77
2021/04/28 00:21:28;;;;;;;5.07;2.05;;;;;;;-143.98;100.00;68091.63;6285724;22;20065;-78
2021/04/28 00:23:55;;;;;;;5.55;2.83;;;;;;;-143.98;100.00;68091.63;6311824;22;20415;-78
2021/04/28 00:26:21;;;;;;;5.60;2.50;;;;;;;-143.98;100.00;68091.63;6259268;22;20066;-78
2021/04/28 00:28:49;;;;;;;13.10;3.03;;;;;;;-143.98;100.00;68091.63;6256266;22;20023;-77
2021/04/28 00:31:15;;;;;;;6.38;2.42;;;;;;;-143.98;100.00;68091.63;6280394;22;20041;-77
2021/04/28 00:33:41;;;;;;;6.40;2.38;;;;;;;-143.98;100.00;68091.63;6275730;22;20038;-77
2021/04/28 00:36:08;;;;;;;6.80;2.95;;;;;;;-143.98;100.00;68091.63;6277123;22;20317;-78
2021/04/28 00:38:34;;;;;;;7.07;3.15;;;;;;;-143.98;100.00;68091.63;6252816;22;20442;-79
2021/04/28 00:41:06;;;;;;;16.10;2.88;;;;;;;-143.98;100.00;68091.63;6253281;22;20040;-79
2021/04/28 00:43:32;;;;;;;6.35;2.60;;;;;;;-143.98;100.00;68091.63;6277476;22;20102;-78
2021/04/28 00:46:00;;;;;;;8.98;2.55;;;;;;;-143.98;100.00;68091.63;6253267;22;20024;-79
2021/04/28 00:48:26;;;;;;;4.80;2.45;;;;;;;-143.98;100.00;68091.63;6279761;22;20404;-79
2021/04/28 00:50:53;;;;;;;7.45;2.97;;;;;;;-143.98;100.00;68091.63;6252269;22;20038;-78
2021/04/28 00:53:21;;;;;;;7.82;2.67;;;;;;;-143.98;100.00;68091.63;6252096;22;20039;-78
2021/04/28 00:55:48;;;;;;;6.03;3.00;;;;;;;-143.98;100.00;68091.63;6278091;22;20047;-78
2021/04/28 00:58:14;;;;;;;9.95;2.85;;;;;;;-143.98;100.00;68091.63;6280536;22;20079;-78
2021/04/28 01:00:42;;;;;;;12.85;3.40;;;;;;;-143.98;100.00;68091.63;6254711;22;20023;-78
2021/04/28 01:03:08;;;;;;;7.68;2.88;;;;;;;-143.98;100.00;68091.63;6282452;22;20020;-79
2021/04/28 01:05:35;;;;;;;5.07;2.65;;;;;;;-143.98;100.00;68091.63;6251180;22;20027;-79
2021/04/28 01:08:02;;;;;;;6.90;3.13;;;;;;;-143.98;100.00;68091.63;6278839;22;20034;-79
2021/04/28 01:10:31;;;;;;;8.30;2.50;;;;;;;-143.98;100.00;68091.63;6252812;22;20058;-78
2021/04/28 01:13:03;;;;;;;8.10;2.95;;;;;;;-143.98;100.00;68091.63;6282351;22;20055;-78
2021/04/28 01:15:31;;;;;;;10.43;3.15;;;;;;;-143.98;100.00;68091.63;6254975;22;20024;-79
2021/04/28 01:18:05;;;;;;;6.93;3.28;;;;;;;-143.98;100.00;68091.63;6253238;22;20174;-79
2021/04/28 01:20:36;;;;;;;6.68;3.22;;;;;;;-143.98;100.00;68091.63;6252865;22;20024;-78
2021/04/28 01:23:05;;;;;;;8.38;2.60;;;;;;;-143.98;100.00;68091.63;6277943;22;20149;-78
2021/04/28 01:25:32;;;;;;;8.82;3.30;;;;;;;-143.98;100.00;68091.63;6254758;22;20024;-77
2021/04/28 01:28:04;;;;;;;4.15;2.78;;;;;;;-143.98;100.00;68091.63;6282265;22;20039;-78
2021/04/28 01:30:38;;;;;;;5.32;2.95;;;;;;;-143.98;100.00;68091.63;6283174;22;20035;-77
2021/04/28 01:33:07;;;;;;;7.65;2.97;;;;;;;-143.98;100.00;68091.63;6254031;22;20097;-77
2021/04/28 01:35:36;;;;;;;7.38;2.80;;;;;;;-143.98;100.00;68091.63;6279504;22;20071;-78
2021/04/28 01:38:04;;;;;;;4.13;2.78;;;;;;;-143.98;100.00;68091.63;6283286;22;20074;-78
2021/04/28 01:40:31;;;;;;;15.80;3.45;;;;;;;-143.98;100.00;68091.63;6280788;22;20027;-78
2021/04/28 01:43:03;;;;;;;14.18;3.40;;;;;;;-143.98;100.00;68091.63;6257353;22;20342;-78
2021/04/28 01:45:33;;;;;;;6.25;3.08;;;;;;;-143.98;100.00;68091.63;6256400;22;20024;-78
2021/04/28 01:48:04;;;;;;;6.65;3.50;;;;;;;-143.98;100.00;68091.63;6279458;22;20034;-78
2021/04/28 01:50:35;;;;;;;9.02;3.20;;;;;;;-143.98;100.00;68091.63;6248786;22;20159;-78
2021/04/28 01:53:02;;;;;;;9.18;3.88;;;;;;;-143.98;100.00;68091.63;6251164;22;20136;-78
2021/04/28 01:55:29;;;;;;;6.55;2.65;;;;;;;-143.98;100.00;68091.63;6276028;22;20027;-78
2021/04/28 01:58:02;;;;;;;9.70;3.40;;;;;;;-143.98;100.00;68091.63;6275574;22;20024;-78
2021/04/28 02:00:31;;;;;;;12.43;3.45;;;;;;;-143.98;100.00;68091.63;6248612;22;20042;-78
2021/04/28 02:03:01;;;;;;;9.98;3.80;;;;;;;-143.98;100.00;68091.63;6250562;22;20027;-77
2021/04/28 02:05:32;;;;;;;10.55;3.28;;;;;;;-143.98;100.00;68091.63;6273522;22;20308;-77
2021/04/28 02:08:02;;;;;;;5.55;3.40;;;;;;;-143.98;100.00;68091.63;6276124;22;20023;-77
2021/04/28 02:10:29;;;;;;;9.13;3.42;;;;;;;-143.98;100.00;68091.63;6274414;22;20016;-79
2021/04/28 02:12:55;;;;;;;8.15;3.65;;;;;;;-143.98;100.00;68091.63;6274772;22;20101;-78
2021/04/28 02:15:26;;;;;;;6.57;3.40;;;;;;;-143.98;100.00;68091.63;6250299;22;20030;-78
2021/04/28 02:17:55;;;;;;;8.10;3.83;;;;;;;-143.98;100.00;68091.63;6251867;22;20028;-78
2021/04/28 02:20:23;;;;;;;8.63;4.25;;;;;;;-143.98;100.00;68091.63;6277385;22;20374;-78
2021/04/28 02:22:53;;;;;;;7.05;3.40;;;;;;;-143.98;100.00;68091.63;6249095;22;20271;-78
2021/04/28 02:25:22;;;;;;;8.27;3.70;;;;;;;-143.98;100.00;68091.63;6274212;22;20106;-78
2021/04/28 02:27:54;;;;;;;9.70;3.08;;;;;;;-143.98;100.00;68091.63;6247906;22;20077;-78
2021/04/28 02:30:36;;;;;;;10.65;3.53;;;;;;;-143.98;100.00;68091.63;6276961;22;20052;-78
2021/04/28 02:33:03;;;;;;;9.93;3.38;;;;;;;-143.98;100.00;68091.63;6253046;22;20572;-78
2021/04/28 02:35:30;;;;;;;9.07;3.38;;;;;;;-143.98;100.00;68091.63;6254198;22;20023;-78
2021/04/28 02:38:34;;;;;;;10.68;3.20;;;;;;;-143.98;100.00;68091.63;6276234;22;20403;-78
2021/04/28 02:41:02;;;;;;;4.35;3.05;;;;;;;-143.98;100.00;68091.63;6255876;22;20058;-78
2021/04/28 02:43:37;;;;;;;8.32;3.53;;;;;;;-143.98;100.00;68091.63;6273440;22;20031;-78
2021/04/28 02:46:05;;;;;;;7.72;2.95;;;;;;;-143.98;100.00;68091.63;6274189;22;20169;-78
2021/04/28 02:48:32;;;;;;;7.40;3.63;;;;;;;-143.98;100.00;68091.63;6250060;22;20035;-79
2021/04/28 02:50:59;;;;;;;6.20;2.42;;;;;;;-143.98;100.00;68091.63;6248427;22;20023;-79
2021/04/28 02:53:27;;;;;;;5.32;3.05;;;;;;;-143.98;100.00;68091.63;6274568;22;20409;-79
2021/04/28 02:55:56;;;;;;;7.35;3.38;;;;;;;-143.98;100.00;68091.63;6274262;22;20083;-78
2021/04/28 02:58:23;;;;;;;5.68;3.30;;;;;;;-143.98;100.00;68091.63;6274965;22;20077;-79
2021/04/28 03:00:50;;;;;;;7.63;4.00;;;;;;;-143.98;100.00;68091.63;6249684;22;20031;-79
2021/04/28 03:03:17;;;;;;;5.88;3.42;;;;;;;-143.98;100.00;68091.63;6249220;22;20114;-79
2021/04/28 03:05:44;;;;;;;12.32;3.65;;;;;;;-143.98;100.00;68091.63;6274537;22;20118;-79
2021/04/28 03:08:10;;;;;;;8.63;3.50;;;;;;;-143.98;100.00;68091.63;6273880;22;20035;-79
2021/04/28 03:10:38;;;;;;;9.95;3.05;;;;;;;-143.98;100.00;68091.63;6248815;22;20038;-79
2021/04/28 03:13:04;;;;;;;5.80;2.70;;;;;;;-143.98;100.00;68091.63;6275882;22;20149;-79
2021/04/28 03:15:33;;;;;;;5.28;2.88;;;;;;;-143.98;100.00;68091.63;6250862;22;20028;-79
2021/04/28 03:18:00;;;;;;;5.75;3.28;;;;;;;-143.98;100.00;68091.63;6252628;22;20024;-78
2021/04/28 03:20:27;;;;;;;13.32;3.30;;;;;;;-143.98;100.00;68091.63;6273884;22;20073;-78
2021/04/28 03:22:54;;;;;;;8.73;3.60;;;;;;;-143.98;100.00;68091.63;6273264;22;20027;-78
2021/04/28 03:25:20;;;;;;;12.23;3.28;;;;;;;-143.98;100.00;68091.63;6273775;22;20020;-78
2021/04/28 03:27:47;;;;;;;5.30;3.00;;;;;;;-143.98;100.00;68091.63;6274828;22;20035;-78
2021/04/28 03:30:15;;;;;;;10.05;3.58;;;;;;;-143.98;100.00;68091.63;6273432;22;20033;-79
2021/04/28 03:32:41;;;;;;;7.95;2.97;;;;;;;-143.98;100.00;68091.63;6275900;22;20529;-78
2021/04/28 03:35:08;;;;;;;9.23;3.33;;;;;;;-143.98;100.00;68091.63;6249542;22;20028;-77
2021/04/28 03:37:34;;;;;;;8.40;3.72;;;;;;;-143.98;100.00;68091.63;6273644;22;20345;-78
2021/04/28 03:40:01;;;;;;;9.32;3.30;;;;;;;-143.98;100.00;68091.63;6274300;22;20062;-77
2021/04/28 03:42:29;;;;;;;9.35;3.75;;;;;;;-143.98;100.00;68091.63;6274403;22;20040;-78
2021/04/28 03:44:56;;;;;;;6.30;3.72;;;;;;;-143.98;100.00;68091.63;6249100;22;20031;-78
2021/04/28 03:47:22;;;;;;;8.18;3.63;;;;;;;-143.98;100.00;68091.63;6250976;22;20027;-78
2021/04/28 03:49:51;;;;;;;9.43;3.78;;;;;;;-143.98;100.00;68091.63;6251760;22;20063;-78
2021/04/28 03:52:17;;;;;;;5.07;3.47;;;;;;;-143.98;100.00;68091.63;6275013;22;20038;-79
2021/04/28 03:54:44;;;;;;;10.45;3.95;;;;;;;-143.98;100.00;68091.63;6249410;22;20023;-77
2021/04/28 03:57:15;;;;;;;6.30;3.40;;;;;;;-143.98;100.00;68091.63;6278893;22;20023;-78
2021/04/28 03:59:43;;;;;;;14.35;3.42;;;;;;;-143.98;100.00;68091.63;6277156;22;20039;-78
2021/04/28 04:02:13;;;;;;;9.38;3.58;;;;;;;-143.98;100.00;68091.63;6279207;22;20027;-78
2021/04/28 04:04:39;;;;;;;9.88;4.07;;;;;;;-143.98;100.00;68091.63;6276353;22;20028;-77
2021/04/28 04:07:06;;;;;;;10.13;3.95;;;;;;;-143.98;100.00;68091.63;6276657;22;20030;-78
2021/04/28 04:09:34;;;;;;;11.18;3.97;;;;;;;-143.98;100.00;68091.63;6279141;22;20050;-79
2021/04/28 04:12:04;;;;;;;10.40;4.03;;;;;;;-143.98;100.00;68091.63;6278794;22;20081;-78
2021/04/28 04:14:33;;;;;;;6.50;3.92;;;;;;;-143.98;100.00;68091.63;6289038;22;20015;-79
2021/04/28 04:17:00;;;;;;;8.55;3.38;;;;;;;-143.98;100.00;68091.63;6298436;22;20007;-78
2021/04/28 04:19:29;;;;;;;8.00;3.20;;;;;;;-143.98;100.00;68091.63;6298990;22;20027;-78
2021/04/28 04:22:01;;;;;;;8.13;3.25;;;;;;;-143.98;100.00;68091.63;6296213;22;20027;-78
2021/04/28 04:24:29;;;;;;;5.43;3.00;;;;;;;-143.98;100.00;68091.63;6284788;22;20024;-78
2021/04/28 04:26:56;;;;;;;7.50;3.50;;;;;;;-143.98;100.00;68091.63;6281666;22;20109;-78
2021/04/28 04:29:23;;;;;;;7.10;3.15;;;;;;;-143.98;100.00;68091.63;6279635;22;20352;-78
2021/04/28 04:31:54;;;;;;;11.95;3.20;;;;;;;-143.98;100.00;68091.63;6276667;22;20023;-79
2021/04/28 04:34:28;;;;;;;7.70;2.90;;;;;;;-143.98;100.00;68091.63;6259763;22;20076;-78
2021/04/28 04:36:58;;;;;;;5.47;3.50;;;;;;;-143.98;100.00;68091.63;6288665;22;20055;-78
2021/04/28 04:39:27;;;;;;;7.82;3.83;;;;;;;-143.98;100.00;68091.63;6281904;22;20026;-78
2021/04/28 04:41:56;;;;;;;5.88;3.15;;;;;;;-143.98;100.00;68091.63;6284842;22;20058;-79
2021/04/28 04:44:23;;;;;;;5.25;3.35;;;;;;;-143.98;100.00;68091.63;6288434;22;20069;-79
2021/04/28 04:46:49;;;;;;;8.13;2.60;;;;;;;-143.98;100.00;68091.63;6313569;22;20097;-79
2021/04/28 04:49:16;;;;;;;7.78;3.58;;;;;;;-143.98;100.00;68091.63;6260603;22;20031;-79
2021/04/28 04:51:42;;;;;;;7.38;3.38;;;;;;;-143.98;100.00;68091.63;6284626;22;20043;-78
2021/04/28 04:54:13;;;;;;;6.97;3.58;;;;;;;-143.98;100.00;68091.63;6284434;22;20027;-78
2021/04/28 04:57:33;;;;;;;10.15;3.40;;;;;;;-143.98;100.00;68091.63;6260137;22;20324;-78
2021/04/28 05:00:02;;;;;;;8.60;3.33;;;;;;;-143.98;100.00;68091.63;6298236;22;20019;-78
2021/04/28 05:02:32;;;;;;;7.05;3.05;;;;;;;-143.98;100.00;68091.63;6274963;22;20180;-79
2021/04/28 05:04:59;;;;;;;4.05;2.55;;;;;;;-143.98;100.00;68091.63;6276429;22;20038;-79
2021/04/28 05:07:26;;;;;;;5.75;2.90;;;;;;;-143.98;100.00;68091.63;6251413;22;20023;-79
2021/04/28 05:09:52;;;;;;;5.22;3.65;;;;;;;-143.98;100.00;68091.63;6276354;22;20027;-79
2021/04/28 05:12:19;;;;;;;6.82;2.92;;;;;;;-143.98;100.00;68091.63;6275559;22;20015;-78
2021/04/28 05:14:45;;;;;;;6.82;3.17;;;;;;;-143.98;100.00;68091.63;6304425;22;20105;-77
2021/04/28 05:17:12;;;;;;;15.02;3.35;;;;;;;-143.98;100.00;68091.63;6274253;22;20285;-78
2021/04/28 05:19:38;;;;;;;6.03;3.40;;;;;;;-143.98;100.00;68091.63;6304187;22;20046;-79
2021/04/28 05:22:08;;;;;;;6.68;3.35;;;;;;;-143.98;100.00;68091.63;6275543;22;20023;-79
2021/04/28 05:24:35;;;;;;;4.05;2.83;;;;;;;-143.98;100.00;68091.63;6251603;22;20389;-79
2021/04/28 05:27:02;;;;;;;13.20;3.67;;;;;;;-143.98;100.00;68091.63;6302988;22;20531;-78
2021/04/28 05:29:34;;;;;;;11.77;3.67;;;;;;;-143.98;100.00;68091.63;6302423;22;20046;-79
2021/04/28 05:32:01;;;;;;;7.15;2.90;;;;;;;-143.98;100.00;68091.63;6306233;22;20076;-80
2021/04/28 05:34:29;;;;;;;6.97;3.20;;;;;;;-143.98;100.00;68091.63;6282084;22;20058;-78
2021/04/28 05:37:13;;;;;;;6.35;3.22;;;;;;;-143.98;100.00;68091.63;6280452;22;20027;-82
2021/04/28 05:39:42;;;;;;;7.57;2.85;;;;;;;-143.98;100.00;68091.63;6250361;22;20027;-79
2021/04/28 05:42:08;;;;;;;6.22;2.97;;;;;;;-143.98;100.00;68091.63;6249858;22;20031;-79
2021/04/28 05:44:39;;;;;;;6.50;3.30;;;;;;;-143.98;100.00;68091.63;6276667;22;20053;-78
2021/04/28 05:47:05;;;;;;;6.00;3.20;;;;;;;-143.98;100.00;68091.63;6299581;22;20448;-78
2021/04/28 05:49:32;;;;;;;9.20;3.20;;;;;;;-143.98;100.00;68091.63;6274072;22;20049;-78
2021/04/28 05:51:58;;;;;;;10.82;3.45;;;;;;;-143.98;100.00;68091.63;6274415;22;20038;-78
2021/04/28 05:54:28;;;;;;;8.25;3.13;;;;;;;-143.98;100.00;68091.63;6249445;22;20119;-79
2021/04/28 05:56:56;;;;;;;7.25;3.30;;;;;;;-143.98;100.00;68091.63;6275254;22;20023;-79
2021/04/28 05:59:23;;;;;;;8.40;3.20;;;;;;;-143.98;100.00;68091.63;6275261;22;20122;-79
2021/04/28 06:01:54;;;;;;;6.38;3.28;;;;;;;-143.98;100.00;68091.63;6302042;22;20193;-78
2021/04/28 06:04:22;;;;;;;6.05;3.85;;;;;;;-143.98;100.00;68091.63;6274654;22;20221;-79
2021/04/28 06:06:48;;;;;;;7.20;3.55;;;;;;;-143.98;100.00;68091.63;6250251;22;20419;-79
2021/04/28 06:09:29;;;;;;;6.50;3.08;;;;;;;-143.98;100.00;68091.63;6251805;22;20101;-79
2021/04/28 06:11:57;;;;;;;6.63;3.00;;;;;;;-143.98;100.00;68091.63;6250938;22;20085;-78
2021/04/28 06:14:27;;;;;;;6.50;3.72;;;;;;;-143.98;100.00;68091.63;6250603;22;20027;-78
2021/04/28 06:16:55;;;;;;;9.02;3.65;;;;;;;-143.98;100.00;68091.63;6300031;22;20240;-79
2021/04/28 06:19:21;;;;;;;7.05;3.38;;;;;;;-143.98;100.00;68091.63;6277779;22;20043;-79
2021/04/28 06:21:47;;;;;;;9.13;3.10;;;;;;;-143.98;100.00;68091.63;6276185;22;20467;-80
2021/04/28 06:24:17;;;;;;;8.00;3.88;;;;;;;-143.98;100.00;68091.63;6277744;22;20030;-79
2021/04/28 06:26:44;;;;;;;19.67;3.42;;;;;;;-143.98;100.00;68091.63;6250883;22;20048;-78
2021/04/28 06:29:17;;;;;;;7.57;3.40;;;;;;;-143.98;100.00;68091.63;6276211;22;20038;-79
2021/04/28 06:31:49;;;;;;;6.65;3.53;;;;;;;-143.98;100.00;68091.63;6275255;22;20027;-79
2021/04/28 06:34:16;;;;;;;9.77;4.15;;;;;;;-143.98;100.00;68091.63;6249600;22;20106;-79
2021/04/28 06:36:43;;;;;;;6.85;3.15;;;;;;;-143.98;100.00;68091.63;6250613;22;20319;-79
2021/04/28 06:39:11;;;;;;;8.20;3.35;;;;;;;-143.98;100.00;68091.63;6276872;22;20301;-79
2021/04/28 06:41:39;;;;;;;5.22;2.92;;;;;;;-143.98;100.00;68091.63;6275957;22;20510;-79
2021/04/28 06:44:06;;;;;;;10.10;4.13;;;;;;;-143.98;100.00;68091.63;6252580;22;20031;-79
2021/04/28 06:46:33;;;;;;;9.73;3.63;;;;;;;-143.98;100.00;68091.63;6279993;22;20023;-78
2021/04/28 06:49:02;;;;;;;6.05;3.58;;;;;;;-143.98;100.00;68091.63;6255335;22;20050;-79
2021/04/28 06:51:28;;;;;;;8.05;3.38;;;;;;;-143.98;100.00;68091.63;6264932;22;20253;-80
2021/04/28 06:53:55;;;;;;;5.63;3.47;;;;;;;-143.98;100.00;68091.63;6277740;22;20027;-78
2021/04/28 06:56:22;;;;;;;11.23;4.35;;;;;;;-143.98;100.00;68091.63;6273905;22;20102;-81
2021/04/28 06:58:51;;;;;;;11.20;4.10;;;;;;;-143.98;100.00;68091.63;6252360;22;20191;-80
2021/04/28 07:01:17;;;;;;;8.80;3.47;;;;;;;-143.98;100.00;68091.63;6282725;22;20078;-80
2021/04/28 07:03:44;;;;;;;11.27;4.30;;;;;;;-143.98;100.00;68091.63;6301725;22;20058;-80
2021/04/28 07:06:11;;;;;;;6.18;4.20;;;;;;;-143.98;100.00;68091.63;6250208;22;20181;-80
2021/04/28 07:08:38;;;;;;;8.18;4.13;;;;;;;-143.98;100.00;68091.63;6250699;22;20363;-79
2021/04/28 07:11:06;;;;;;;8.60;3.92;;;;;;;-143.98;100.00;68091.63;6282549;22;20034;-79
2021/04/28 07:13:33;;;;;;;5.80;3.47;;;;;;;-143.98;100.00;68091.63;6285355;22;20095;-79
2021/04/28 07:16:04;;;;;;;9.10;4.45;;;;;;;-143.98;100.00;68091.63;6282075;22;20221;-79
2021/04/28 07:18:31;;;;;;;8.45;4.20;;;;;;;-143.98;100.00;68091.63;6274907;22;20023;-79
2021/04/28 07:20:58;;;;;;;7.70;4.75;;;;;;;-143.98;100.00;68091.63;6246818;22;20027;-79
2021/04/28 07:23:25;;;;;;;9.48;3.85;;;;;;;-143.98;100.00;68091.63;6277818;22;20057;-80
2021/04/28 07:25:51;;;;;;;13.63;4.20;;;;;;;-143.98;100.00;68091.63;6275802;22;20026;-80
2021/04/28 07:28:18;;;;;;;5.65;3.60;;;;;;;-143.98;100.00;68091.63;6303746;22;20415;-79
2021/04/28 07:30:47;;;;;;;5.90;3.90;;;;;;;-143.98;100.00;68091.63;6276332;22;20158;-80
2021/04/28 07:33:13;;;;;;;6.60;3.97;;;;;;;-143.98;100.00;68091.63;6271397;22;20038;-80
2021/04/28 07:35:39;;;;;;;8.98;3.75;;;;;;;-143.98;100.00;68091.63;6270649;22;20077;-79
2021/04/28 07:38:06;;;;;;;15.32;3.90;;;;;;;-143.98;100.00;68091.63;6269808;22;20030;-79
2021/04/28 07:40:38;;;;;;;8.95;3.80;;;;;;;-143.98;100.00;68091.63;6270879;22;20028;-80
2021/04/28 07:43:08;;;;;;;7.45;4.70;;;;;;;-143.98;100.00;68091.63;6272068;22;20073;-79
2021/04/28 07:45:35;;;;;;;6.68;3.83;;;;;;;-143.98;100.00;68091.63;6279160;22;20039;-80
2021/04/28 07:48:14;;;;;;;10.50;4.18;;;;;;;-143.98;100.00;68091.63;6285123;22;20027;-79
2021/04/28 07:50:44;;;;;;;6.05;4.30;;;;;;;-143.98;100.00;68091.63;6275592;22;20028;-79
2021/04/28 07:53:10;;;;;;;8.73;4.32;;;;;;;-143.98;100.00;68091.63;6273404;22;20028;-81
2021/04/28 07:55:37;;;;;;;6.25;3.70;;;;;;;-143.98;100.00;68091.63;6256677;22;20023;-79
2021/04/28 07:58:05;;;;;;;11.10;4.10;;;;;;;-143.98;100.00;68091.63;6279840;22;20027;-79
2021/04/28 08:00:32;;;;;;;10.25;4.65;;;;;;;-143.98;100.00;68091.63;6258415;22;20068;-80
2021/04/28 08:03:05;;;;;;;7.53;4.20;;;;;;;-143.98;100.00;68091.63;6286352;22;20024;-82
2021/04/28 08:05:32;;;;;;;8.40;4.18;;;;;;;-143.98;100.00;68091.63;6285573;22;20223;-80
2021/04/28 08:07:59;;;;;;;5.88;4.32;;;;;;;-143.98;100.00;68091.63;6278852;22;20027;-80
2021/04/28 08:10:29;;;;;;;9.13;4.97;;;;;;;-143.98;100.00;68091.63;6273266;22;20092;-80
2021/04/28 08:12:55;;;;;;;5.40;4.07;;;;;;;-143.98;100.00;68091.63;6245870;22;20043;-80
2021/04/28 08:15:26;;;;;;;12.50;5.10;;;;;;;-143.98;100.00;68091.63;6271523;22;20020;-81
2021/04/28 08:18:07;;;;;;;13.90;4.63;;;;;;;-143.98;100.00;68091.63;6277985;22;20023;-82
2021/04/28 08:20:38;;;;;;;11.23;4.75;;;;;;;-143.98;100.00;68091.63;6274807;22;20038;-79
2021/04/28 08:23:06;;;;;;;8.77;5.03;;;;;;;-143.98;100.00;68091.63;6245811;22;20116;-79
2021/04/28 08:25:33;;;;;;;9.73;5.20;;;;;;;-143.98;100.00;68091.63;6250199;22;20187;-80
2021/04/28 08:28:00;;;;;;;8.95;4.75;;;;;;;-143.98;100.00;68091.63;6275182;22;20031;-79
2021/04/28 08:30:26;;;;;;;7.25;4.60;;;;;;;-143.98;100.00;68091.63;6250208;22;20055;-79
2021/04/28 08:33:11;;;;;;;10.23;5.07;;;;;;;-143.98;100.00;68091.63;6272807;22;20051;-80
2021/04/28 08:35:37;;;;;;;9.10;4.85;;;;;;;-143.98;100.00;68091.63;6271549;22;20024;-80
2021/04/28 08:38:17;;;;;;;8.00;4.88;;;;;;;-143.98;100.00;68091.63;6250349;22;20332;-82
2021/04/28 08:40:45;;;;;;;8.10;4.97;;;;;;;-143.98;100.00;68091.63;6246700;22;20024;-80
2021/04/28 08:43:12;;;;;;;8.98;4.88;;;;;;;-143.98;100.00;68091.63;6250959;22;20027;-81
2021/04/28 08:45:48;;;;;;;8.25;4.90;;;;;;;-143.98;100.00;68091.63;6252344;22;20069;-80
2021/04/28 08:48:16;;;;;;;7.45;5.22;;;;;;;-143.98;100.00;68091.63;6251625;22;20031;-81
2021/04/28 08:50:44;;;;;;;8.43;4.93;;;;;;;-143.98;100.00;68091.63;6249040;22;20015;-80
2021/04/28 08:53:17;;;;;;;10.40;4.80;;;;;;;-143.98;100.00;68091.63;6276179;22;20088;-80
2021/04/28 08:55:45;;;;;;;7.32;4.85;;;;;;;-143.98;100.00;68091.63;6275081;22;20200;-79
2021/04/28 08:58:12;;;;;;;9.18;5.25;;;;;;;-143.98;100.00;68091.63;6276412;22;20049;-80
2021/04/28 09:00:40;;;;;;;12.55;5.82;;;;;;;-143.98;100.00;68091.63;6274888;22;20216;-80
2021/04/28 09:03:06;;;;;;;11.13;5.35;;;;;;;-143.98;100.00;68091.63;6274120;22;20026;-79
2021/04/28 09:05:34;;;;;;;12.05;5.80;;;;;;;-143.98;100.00;68091.63;6274648;22;20020;-80
2021/04/28 09:08:08;;;;;;;9.98;5.15;;;;;;;-143.98;100.00;68091.63;6274235;22;20471;-79
2021/04/28 09:10:35;;;;;;;9.60;5.22;;;;;;;-143.98;100.00;68091.63;6250298;22;20027;-81
2021/04/28 09:13:07;;;;;;;12.68;5.75;;;;;;;-143.98;100.00;68091.63;6275318;22;20031;-81
2021/04/28 09:15:47;;;;;;;11.55;5.30;;;;;;;-143.98;100.00;68091.63;6275317;22;20023;-79
2021/04/28 09:18:19;;;;;;;7.93;5.25;;;;;;;-143.98;100.00;68091.63;6275942;22;20028;-81
2021/04/28 09:20:55;;;;;;;9.30;5.72;;;;;;;-143.98;100.00;68091.63;6250210;22;20024;-80
2021/04/28 09:23:29;;;;;;;15.52;5.32;;;;;;;-143.98;100.00;68091.63;6288970;22;20032;-80
2021/04/28 09:25:56;;;;;;;11.93;5.82;;;;;;;-143.98;100.00;68091.63;6266098;22;20011;-80
2021/04/28 09:28:29;;;;;;;10.90;5.43;;;;;;;-143.98;100.00;68091.63;6291280;22;20025;-80
2021/04/28 09:31:12;;;;;;;9.52;5.57;;;;;;;-143.98;100.00;68091.63;6263864;22;20073;-80
2021/04/28 09:33:41;;;;;;;16.05;6.10;;;;;;;-143.98;100.00;68091.63;6284117;22;20106;-79
2021/04/28 09:36:15;;;;;;;19.48;5.88;;;;;;;-143.98;100.00;68091.63;6280460;22;20232;-80
2021/04/28 09:38:53;;;;;;;8.40;6.05;;;;;;;-143.98;100.00;68091.63;6274379;22;20274;-80
2021/04/28 09:41:35;;;;;;;11.65;5.35;;;;;;;-143.98;100.00;68091.63;6274547;22;20039;-80
2021/04/28 09:44:31;;;;;;;8.20;5.00;;;;;;;-143.98;100.00;68091.63;6281537;22;20161;-80
2021/04/28 09:47:05;;;;;;;10.77;5.65;;;;;;;-143.98;100.00;68091.63;6286823;22;20075;-81
2021/04/28 09:50:05;;;;;;;12.98;5.70;;;;;;;-143.98;100.00;68091.63;6285446;22;20043;-80
2021/04/28 09:52:34;;;;;;;10.07;5.80;;;;;;;-143.98;100.00;68091.63;6254239;22;20039;-79
2021/04/28 09:55:09;;;;;;;10.13;5.80;;;;;;;-143.98;100.00;68091.63;6279839;22;20244;-80
2021/04/28 09:57:40;;;;;;;12.07;5.72;;;;;;;-143.98;100.00;68091.63;6275539;22;20085;-80
2021/04/28 10:00:20;;;;;;;10.20;6.38;;;;;;;-143.98;100.00;68091.63;6250528;22;20042;-79
2021/04/28 10:03:04;;;;;;;8.20;5.65;;;;;;;-143.98;100.00;68091.63;6274474;22;20031;-80
2021/04/28 10:05:47;;;;;;;14.15;6.25;;;;;;;-143.98;100.00;68091.63;6250143;22;20238;-80
2021/04/28 10:08:20;;;;;;;15.02;7.55;;;;;;;-143.98;100.00;68091.63;6250623;22;20457;-79
2021/04/28 10:10:50;;;;;;;8.93;6.22;;;;;;;-143.98;100.00;68091.63;6278034;22;20043;-80
2021/04/28 10:13:26;;;;;;;16.17;7.07;;;;;;;-143.98;100.00;68091.63;6250124;22;20047;-80
2021/04/28 10:16:09;;;;;;;16.23;6.43;;;;;;;-143.98;100.00;68091.63;6253496;22;20089;-80
2021/04/28 10:18:39;;;;;;;11.05;6.35;;;;;;;-143.98;100.00;68091.63;6248943;22;20439;-80
2021/04/28 10:21:06;;;;;;;14.98;7.22;;;;;;;-143.98;100.00;68091.63;6247368;22;20030;-81
2021/04/28 10:23:41;;;;;;;9.32;5.97;;;;;;;-143.98;100.00;68091.63;6246520;22;20035;-80
2021/04/28 10:26:08;;;;;;;16.63;6.60;;;;;;;-143.98;100.00;68091.63;6248858;22;20082;-79
2021/04/28 10:28:36;;;;;;;9.93;7.00;;;;;;;-143.98;100.00;68091.63;6274235;22;20095;-80
2021/04/28 10:31:04;;;;;;;10.57;6.72;;;;;;;-143.98;100.00;68091.63;6247268;22;20118;-81
2021/04/28 10:33:35;;;;;;;9.55;6.10;;;;;;;-143.98;100.00;68091.63;6249632;22;20294;-81
2021/04/28 10:36:21;;;;;;;9.98;6.65;;;;;;;-143.98;100.00;68091.63;6276964;22;20032;-80
2021/04/28 10:38:48;;;;;;;9.45;6.53;;;;;;;-143.98;100.00;68091.63;6273147;22;20209;-80
2021/04/28 10:41:35;;;;;;;10.18;6.88;;;;;;;-143.98;100.00;68091.63;6248391;22;20027;-81
2021/04/28 10:44:01;;;;;;;10.20;6.72;;;;;;;-143.98;100.00;68091.63;6272827;22;20020;-80
2021/04/28 10:46:27;;;;;;;9.27;6.20;;;;;;;-143.98;100.00;68091.63;6245735;22;20047;-81
2021/04/28 10:49:18;;;;;;;12.52;7.15;;;;;;;-143.98;100.00;68091.63;6273502;22;20028;-81
2021/04/28 10:51:46;;;;;;;10.48;7.20;;;;;;;-143.98;100.00;68091.63;6272113;22;20038;-80
2021/04/28 10:54:21;;;;;;;12.10;7.20;;;;;;;-143.98;100.00;68091.63;6274710;22;20031;-80
2021/04/28 10:57:08;;;;;;;12.18;6.55;;;;;;;-143.98;100.00;68091.63;6273261;22;20028;-83
2021/04/28 10:59:42;;;;;;;13.02;7.22;;;;;;;-143.98;100.00;68091.63;6271323;22;20035;-81
2021/04/28 11:02:11;;;;;;;12.93;7.22;;;;;;;-143.98;100.00;68091.63;6245856;22;20325;-79
2021/04/28 11:04:47;;;;;;;10.88;7.50;;;;;;;-143.98;100.00;68091.63;6245543;22;20020;-80
2021/04/28 11:07:15;;;;;;;;;;;;;;;28.07;13.19;100583.09;6258397;22;20031;-79
2021/04/28 11:09:44;;;;;;;11.02;7.80;;;;;;;29.08;11.95;100588.03;6256379;22;20169;-80
2021/04/28 11:12:11;;;;;;;12.15;8.15;;;;;;;29.15;11.95;100583.72;6259334;22;20027;-80
2021/04/28 11:14:46;;;;;;;11.48;7.57;;;;;;;30.62;10.92;100562.41;6259632;22;20183;-81
2021/04/28 11:17:18;;;;;;;12.10;8.20;;;;;;;31.94;10.36;100562.50;6282720;22;20023;-80
2021/04/28 11:20:20;;;;;;;13.55;7.50;;;;;;;32.23;10.55;100554.38;6283401;22;20023;-85